メインページ
METAR-TAF:

METAR-TAF

空港 :

アスンシオン, パラグアイ

シルビオ・ペッティロッシ国際空港

緯度: 25-16S, 経度: 057-38W, 海抜: 101m

現時点の気象観測

当レポートは1時間17分前の05:00(UTC)に作成
変向風 4kt
気温 24°C
湿度 83%
気圧 1014 hPa
視程10km以上
1,500メートル以下は雲なし、積乱雲なし

METAR: SGAS 280500Z VRB04KT CAVOK 24/21 Q1014

時間: 02:17 (06:17 UTC)

予報

当レポートは2時間12分前の04:05(UTC)に作成
予報は28日の 06時(UTC)から 29日の 06時(UTC)まで有効
変向風 4kt
視程10km以上
1,500メートル以下は雲なし、積乱雲なし
28日の 14時(UTC)から 28日の 17時(UTC)まで徐々に
変向風 3kt
視程10km以上
高度3300ftの雲は散在している
28日の 18時(UTC)から 28日の 21時(UTC)まで徐々に
視程10km以上
高度3000ftの雲は散在している

TAF: SGAS 280405Z 2806/2906 VRB04KT CAVOK TX34/2819Z TN22/2810Z BECMG 2814/2817 VRB03KT 9999 SCT033 BECMG 2818/2821 9999 SCT030

4,000以上の空港の気象観測と天気予報(METAR報とTAF報)

利用可能な観測所は地図上に黄色い丸と赤い丸で示す。

丸の上にカーソルを重ねると観測所名を参照できる。

次にクリックすると気象観測と天気予報を参照できる。

マップの切り替え:黒色「×」印の緑ボタンをクリックして拡大、「-」印の緑ボタンをクリックして縮小、緑色の三角印をクリックして隣りの地図に切り替え


METAR-TAF: